Time;durP1;ratioP1;P1;durP2;ratioP2;P2;SDS_P1;SDS_P2;PMS_P1;PMS_P2;Temp;Humidity;BMP_temperature;BMP_pressure;BME280_temperature;BME280_humidity;BME280_pressure;Samples;Min_cycle;Max_cycle;Signal;HPM_P1;HPM_P2
2022/04/27 00:01:54;;;;;;;;;14.75;13.00;;;;;10.56;53.71;101852.69;5061517;28;45219;-64
2022/04/27 00:04:20;;;;;;;;;15.50;14.00;;;;;10.57;53.69;101857.00;5067440;28;45202;-62
2022/04/27 00:06:45;;;;;;;;;17.75;14.75;;;;;10.55;54.72;101856.16;5060977;27;45351;-62
2022/04/27 00:09:11;;;;;;;;;11.50;9.50;;;;;10.53;54.50;101858.78;5060996;28;45280;-62
2022/04/27 00:11:37;;;;;;;;;18.50;14.75;;;;;10.52;53.65;101861.41;5059619;28;45261;-62
2022/04/27 00:14:03;;;;;;;;;13.25;11.50;;;;;10.47;54.31;101864.06;5060307;28;45407;-62
2022/04/27 00:16:29;;;;;;;;;17.00;13.25;;;;;10.47;53.75;101861.44;5060789;28;46515;-62
2022/04/27 00:18:55;;;;;;;;;17.00;15.00;;;;;10.42;54.42;101858.03;5060877;28;45818;-62
2022/04/27 00:21:20;;;;;;;;;14.50;13.75;;;;;10.42;54.20;101868.44;5060787;28;45445;-62
2022/04/27 00:23:46;;;;;;;;;18.25;14.75;;;;;10.41;54.09;101855.44;5057888;28;45526;-62
2022/04/27 00:26:12;;;;;;;;;13.75;12.00;;;;;10.37;55.56;101854.59;5057875;28;47204;-62
2022/04/27 00:28:37;;;;;;;;;22.50;13.75;;;;;10.33;55.19;101850.31;5057820;28;45353;-62
2022/04/27 00:31:03;;;;;;;;;12.50;9.50;;;;;10.31;54.55;101859.84;5059313;28;45332;-63
2022/04/27 00:33:28;;;;;;;;;24.75;18.25;;;;;10.29;54.26;101859.88;5058814;28;45470;-61
2022/04/27 00:35:54;;;;;;;;;16.25;13.75;;;;;10.28;55.41;101858.16;5058741;28;45609;-64
2022/04/27 00:38:19;;;;;;;;;18.25;14.75;;;;;10.29;54.74;101856.41;5058679;28;45617;-63
2022/04/27 00:40:45;;;;;;;;;13.25;12.25;;;;;10.29;55.53;101859.00;5059815;28;45213;-64
2022/04/27 00:43:14;;;;;;;;;15.75;13.00;;;;;10.27;55.37;101864.22;5058628;28;45444;-64
2022/04/27 00:45:40;;;;;;;;;22.25;15.00;;;;;10.25;55.07;101859.91;5061835;28;46314;-63
2022/04/27 00:48:06;;;;;;;;;21.25;15.25;;;;;10.22;55.66;101858.22;5060238;28;45529;-65
2022/04/27 00:50:32;;;;;;;;;15.00;13.00;;;;;10.18;55.36;101850.41;5060602;28;45485;-63
2022/04/27 00:52:59;;;;;;;;;12.00;11.00;;;;;10.18;55.51;101855.59;5059522;28;45280;-64
2022/04/27 00:55:24;;;;;;;;;15.00;12.75;;;;;10.17;55.87;101851.28;5060433;28;45259;-64
2022/04/27 00:57:50;;;;;;;;;19.00;13.00;;;;;10.12;55.24;101846.13;5058044;28;45661;-62
2022/04/27 01:00:16;;;;;;;;;13.00;12.00;;;;;10.11;55.99;101843.53;5057522;28;45655;-63
2022/04/27 01:02:42;;;;;;;;;17.25;12.75;;;;;10.11;55.58;101853.94;5060811;28;45593;-63
2022/04/27 01:05:09;;;;;;;;;15.00;12.50;;;;;10.06;56.44;101848.78;5061758;27;45802;-62
2022/04/27 01:07:37;;;;;;;;;19.50;14.50;;;;;10.02;55.97;101850.53;5057961;28;45999;-64
2022/04/27 01:10:03;;;;;;;;;20.25;18.00;;;;;9.97;56.02;101843.63;5058048;28;45544;-64
2022/04/27 01:12:28;;;;;;;;;17.50;16.00;;;;;9.95;55.75;101847.97;5058177;28;45324;-64
2022/04/27 01:14:53;;;;;;;;;22.75;15.00;;;;;9.95;55.74;101838.44;5058015;28;47874;-63
2022/04/27 01:17:21;;;;;;;;;16.75;15.75;;;;;9.94;56.10;101848.84;5060161;28;45228;-61
2022/04/27 01:19:47;;;;;;;;;21.50;17.00;;;;;9.93;56.55;101845.41;5060052;28;45441;-62
2022/04/27 01:22:12;;;;;;;;;18.25;15.75;;;;;9.92;56.55;101842.81;5060200;28;45248;-62
2022/04/27 01:24:38;;;;;;;;;18.00;14.25;;;;;9.91;56.45;101841.09;5059958;28;45266;-63
2022/04/27 01:27:03;;;;;;;;;22.75;17.50;;;;;9.88;58.52;101847.16;5059763;28;45398;-63
2022/04/27 01:29:30;;;;;;;;;22.50;17.75;;;;;9.85;57.51;101851.53;5061156;28;45335;-63
2022/04/27 01:31:57;;;;;;;;;22.00;17.00;;;;;9.82;57.16;101852.41;5058093;28;45624;-63
2022/04/27 01:34:23;;;;;;;;;22.00;20.00;;;;;9.80;58.29;101859.31;5059791;28;47122;-63
2022/04/27 01:36:48;;;;;;;;;19.50;14.50;;;;;9.73;58.45;101847.25;5059806;28;45397;-62
2022/04/27 01:39:14;;;;;;;;;26.25;19.00;;;;;9.68;58.67;101843.84;5060070;28;45330;-62
2022/04/27 01:41:40;;;;;;;;;19.75;17.25;;;;;9.66;58.22;101858.56;5059569;28;45375;-62
2022/04/27 01:44:05;;;;;;;;;19.25;15.00;;;;;9.61;58.23;101849.91;5058753;28;46454;-62
2022/04/27 01:46:31;;;;;;;;;22.25;16.00;;;;;9.60;57.75;101849.06;5059438;28;45316;-62
2022/04/27 01:48:56;;;;;;;;;18.50;12.25;;;;;9.58;57.03;101849.94;5060019;28;45220;-63
2022/04/27 01:54:14;;;;;;;;;18.50;16.00;;;;;9.58;57.04;101848.22;5059576;28;45232;-63
2022/04/27 01:54:17;;;;;;;;;12.25;7.25;;;;;9.52;58.07;101850.84;5059612;28;46301;-62
2022/04/27 01:56:47;;;;;;;;;20.25;17.25;;;;;9.49;58.46;101857.78;5057141;28;45815;-63
2022/04/27 01:59:13;;;;;;;;;15.75;15.00;;;;;9.48;58.47;101854.34;5058972;28;45293;-63
2022/04/27 02:01:39;;;;;;;;;15.50;12.25;;;;;9.44;58.16;101858.69;5059649;28;45353;-62
2022/04/27 02:04:04;;;;;;;;;21.00;15.75;;;;;9.42;58.52;101863.03;5062743;28;45424;-63
2022/04/27 02:06:30;;;;;;;;;20.25;17.25;;;;;9.37;58.72;101859.56;5058707;28;45194;-63
2022/04/27 02:08:56;;;;;;;;;18.25;16.00;;;;;9.33;60.37;101862.19;5059588;28;45189;-64
2022/04/27 02:11:24;;;;;;;;;20.25;17.75;;;;;9.28;59.55;101864.81;5059578;28;45481;-64
2022/04/27 02:13:54;;;;;;;;;20.50;15.75;;;;;9.23;59.05;101866.56;5058207;28;46849;-63
2022/04/27 02:16:22;;;;;;;;;21.25;13.25;;;;;9.18;61.29;101876.06;5058151;28;45767;-63
2022/04/27 02:18:48;;;;;;;;;21.75;18.50;;;;;9.14;60.95;101872.63;5059404;28;45448;-63
2022/04/27 02:21:15;;;;;;;;;19.75;16.00;;;;;9.16;60.50;101872.63;5059096;28;45282;-67
2022/04/27 02:23:40;;;;;;;;;23.75;20.50;;;;;9.14;60.25;101871.75;5058370;28;45659;-63
2022/04/27 02:26:06;;;;;;;;;18.25;17.75;;;;;9.10;60.79;101864.88;5059314;28;45513;-63
2022/04/27 02:28:31;;;;;;;;;22.75;17.75;;;;;9.11;59.67;101877.81;5059015;28;45375;-63
2022/04/27 02:30:57;;;;;;;;;19.75;16.75;;;;;9.07;60.61;101863.16;5059156;28;45358;-64
2022/04/27 02:33:22;;;;;;;;;25.25;18.25;;;;;9.02;61.98;101858.84;5059184;28;46590;-64
2022/04/27 02:35:49;;;;;;;;;26.25;20.25;;;;;8.99;62.99;101866.63;5058610;28;45509;-64
2022/04/27 02:38:14;;;;;;;;;25.75;22.00;;;;;8.98;61.29;101862.31;5062587;28;45372;-64
2022/04/27 02:40:39;;;;;;;;;26.00;22.25;;;;;8.90;60.86;101859.75;5062401;28;45240;-64
2022/04/27 02:43:05;;;;;;;;;22.00;20.75;;;;;8.87;61.92;101866.66;5059999;28;46661;-64
2022/04/27 02:45:30;;;;;;;;;18.25;16.75;;;;;8.86;61.47;101864.94;5062661;28;45422;-64
2022/04/27 02:47:56;;;;;;;;;28.00;17.00;;;;;8.84;61.53;101865.81;5061377;28;45297;-64
2022/04/27 02:53:05;;;;;;;;;26.00;20.75;;;;;8.80;61.58;101869.25;5062412;28;45701;-63
2022/04/27 02:55:30;;;;;;;;;24.50;19.75;;;;;8.79;61.78;101869.25;5062663;28;45409;-64
2022/04/27 02:57:56;;;;;;;;;26.75;23.00;;;;;8.77;61.74;101863.22;5059969;28;45329;-63
2022/04/27 03:00:21;;;;;;;;;25.75;17.75;;;;;8.74;61.85;101858.91;5061676;28;45200;-63
2022/04/27 03:02:46;;;;;;;;;30.25;23.25;;;;;8.73;62.42;101857.19;5060590;28;48021;-63
2022/04/27 03:05:12;;;;;;;;;23.00;21.00;;;;;8.73;62.15;101852.00;5062030;28;45455;-63
2022/04/27 03:07:37;;;;;;;;;22.25;16.00;;;;;8.76;62.68;101857.16;5058866;28;45216;-63
2022/04/27 03:10:03;;;;;;;;;26.50;26.00;;;;;8.74;61.60;101851.13;5060541;28;45457;-63
2022/04/27 03:12:28;;;;;;;;;23.25;17.00;;;;;8.69;62.80;101844.25;5066507;28;46338;-63
2022/04/27 03:14:54;;;;;;;;;26.25;20.25;;;;;8.72;62.62;101850.28;5062046;28;45284;-63
2022/04/27 03:17:19;;;;;;;;;32.75;23.75;;;;;8.71;63.96;101850.28;5066567;28;45510;-63
2022/04/27 03:19:45;;;;;;;;;29.25;21.25;;;;;8.65;63.19;101856.34;5061737;28;45366;-63
2022/04/27 03:22:10;;;;;;;;;19.00;11.25;;;;;8.63;63.75;101854.63;5056339;28;45511;-62
2022/04/27 03:24:35;;;;;;;;;24.00;20.00;;;;;8.66;63.82;101855.47;5066220;28;45467;-62
2022/04/27 03:27:01;;;;;;;;;35.25;23.50;;;;;8.64;63.01;101856.34;5061469;28;45447;-63
2022/04/27 03:29:26;;;;;;;;;30.00;23.50;;;;;8.60;65.25;101852.00;5061594;28;45304;-62
2022/04/27 03:31:52;;;;;;;;;32.00;25.25;;;;;8.53;64.62;101849.44;5061886;28;46181;-62
2022/04/27 03:34:17;;;;;;;;;26.50;24.25;;;;;8.53;65.90;101857.22;5061443;28;45398;-62
2022/04/27 03:36:42;;;;;;;;;29.50;24.00;;;;;8.46;65.48;101841.69;5061610;28;45367;-62
2022/04/27 03:39:08;;;;;;;;;27.25;25.25;;;;;8.49;64.20;101846.88;5061617;28;45461;-62
2022/04/27 03:41:33;;;;;;;;;33.50;28.75;;;;;8.46;65.99;101849.47;5061407;28;46266;-63
2022/04/27 03:43:58;;;;;;;;;35.50;24.00;;;;;8.42;65.48;101847.75;5061291;28;45324;-63
2022/04/27 03:46:24;;;;;;;;;24.75;16.50;;;;;8.44;64.67;101840.84;5061474;28;45335;-63
2022/04/27 03:48:50;;;;;;;;;43.50;29.75;;;;;8.45;64.60;101847.75;5061470;28;45604;-62
2022/04/27 03:51:16;;;;;;;;;35.00;29.00;;;;;8.44;63.37;101831.34;5061007;28;45423;-63
2022/04/27 03:53:41;;;;;;;;;25.50;23.00;;;;;8.42;65.17;101842.56;5060860;28;45219;-62
2022/04/27 03:56:06;;;;;;;;;31.25;27.50;;;;;8.40;65.40;101850.31;5061319;28;45219;-63
2022/04/27 03:58:32;;;;;;;;;32.75;23.75;;;;;8.39;66.19;101843.41;5061026;28;46547;-63
2022/04/27 04:00:58;;;;;;;;;30.00;25.50;;;;;8.39;65.73;101848.59;5061087;28;45429;-63
2022/04/27 04:03:24;;;;;;;;;34.50;29.00;;;;;8.38;65.03;101846.84;5063860;28;45698;-63
2022/04/27 04:05:49;;;;;;;;;32.75;25.25;;;;;8.36;64.83;101850.31;5061136;28;45443;-63
2022/04/27 04:08:15;;;;;;;;;37.25;27.50;;;;;8.36;65.44;101858.94;5059616;28;45461;-63
2022/04/27 04:10:40;;;;;;;;;35.75;22.25;;;;;8.35;64.93;101846.88;5059541;28;45410;-63
2022/04/27 04:13:06;;;;;;;;;35.25;27.00;;;;;8.33;67.18;101850.28;5059300;28;45311;-64
2022/04/27 04:15:32;;;;;;;;;35.00;25.00;;;;;8.26;66.99;101846.84;5059745;28;45301;-64
2022/04/27 04:17:57;;;;;;;;;33.50;24.00;;;;;8.23;67.78;101854.63;5059582;28;45503;-64
2022/04/27 04:20:23;;;;;;;;;33.50;23.25;;;;;8.23;66.69;101854.63;5059383;28;45409;-64
2022/04/27 04:22:49;;;;;;;;;32.50;27.50;;;;;8.21;66.70;101856.34;5059505;28;45682;-64
2022/04/27 04:30:44;;;;;;;;;42.25;33.25;;;;;8.13;69.61;101856.34;5059282;28;45748;-66
2022/04/27 04:33:09;;;;;;;;;38.75;33.50;;;;;8.10;67.93;101861.50;5059431;28;45440;-65
2022/04/27 04:35:35;;;;;;;;;33.75;25.00;;;;;8.12;68.64;101864.09;5059113;28;45566;-64
2022/04/27 04:38:01;;;;;;;;;40.25;31.00;;;;;8.11;66.57;101868.41;5059470;28;45509;-64
2022/04/27 04:40:26;;;;;;;;;37.50;31.00;;;;;8.10;70.41;101877.03;5059274;28;45306;-65
2022/04/27 04:42:52;;;;;;;;;37.75;29.00;;;;;8.08;69.20;101867.56;5058701;28;45370;-65
2022/04/27 04:45:17;;;;;;;;;29.75;23.25;;;;;8.11;68.30;101868.41;5059342;28;45424;-67
2022/04/27 04:47:43;;;;;;;;;39.00;28.50;;;;;8.13;68.83;101873.59;5058994;28;45288;-64
2022/04/27 04:50:09;;;;;;;;;31.00;24.00;;;;;8.15;67.62;101877.91;5058662;28;46066;-67
2022/04/27 04:52:35;;;;;;;;;36.50;31.50;;;;;8.17;68.42;101875.31;5059023;28;45278;-65
2022/04/27 04:55:00;;;;;;;;;41.75;31.50;;;;;8.16;69.52;101871.88;5058930;28;45712;-65
2022/04/27 04:57:25;;;;;;;;;43.50;32.75;;;;;8.16;68.97;101876.19;5058620;28;45348;-65
2022/04/27 04:59:51;;;;;;;;;36.50;28.25;;;;;8.15;68.29;101884.81;5058629;28;45330;-65
2022/04/27 05:02:16;;;;;;;;;31.75;28.25;;;;;8.13;71.40;101882.22;5059057;28;45432;-64
2022/04/27 05:04:41;;;;;;;;;27.67;22.67;;;;;8.12;71.51;101890.84;5061156;28;45777;-64
2022/04/27 05:07:07;;;;;;;;;38.75;31.00;;;;;8.10;69.66;101889.13;5058307;28;45422;-65
2022/04/27 05:09:32;;;;;;;;;39.00;30.50;;;;;8.10;69.65;101890.00;5058681;28;46115;-64
2022/04/27 05:11:58;;;;;;;;;41.50;32.25;;;;;8.13;68.68;101900.34;5058606;28;45372;-65
2022/04/27 05:14:23;;;;;;;;;39.00;32.00;;;;;8.15;69.55;101884.81;5058424;28;45664;-64
2022/04/27 05:16:49;;;;;;;;;46.50;36.25;;;;;8.16;68.90;101900.34;5058806;28;45359;-64
2022/04/27 05:19:14;;;;;;;;;44.50;33.50;;;;;8.21;68.97;101890.03;5058641;28;46250;-64
2022/04/27 05:21:39;;;;;;;;;39.50;32.50;;;;;8.20;69.85;101891.72;5058639;28;45604;-64
2022/04/27 05:24:05;;;;;;;;;40.50;29.50;;;;;8.19;70.63;101902.06;5058586;28;45557;-64
2022/04/27 05:26:31;;;;;;;;;36.75;25.00;;;;;8.23;69.46;101898.66;5058118;28;46787;-64
2022/04/27 05:31:55;;;;;;;;;21.00;18.00;;;;;8.29;68.32;101898.63;5056234;28;46182;-66
2022/04/27 05:34:21;;;;;;;;;39.50;30.00;;;;;8.30;68.83;101908.13;5057690;28;45385;-65
2022/04/27 05:36:47;;;;;;;;;35.75;30.00;;;;;8.35;68.55;101903.84;5057981;28;45356;-64
2022/04/27 05:39:13;;;;;;;;;49.25;33.00;;;;;8.36;70.63;101910.75;5058533;28;46687;-65
2022/04/27 05:41:38;;;;;;;;;47.00;36.50;;;;;8.35;68.81;101908.16;5066137;28;45598;-65
2022/04/27 05:44:09;;;;;;;;;36.50;29.50;;;;;8.37;69.28;101917.66;5056517;28;45473;-66
2022/04/27 05:46:35;;;;;;;;;47.75;40.25;;;;;8.40;69.44;101914.19;5056239;28;45623;-61
2022/04/27 05:49:01;;;;;;;;;33.50;27.75;;;;;8.40;69.04;101914.19;5057527;28;45470;-63
2022/04/27 05:51:26;;;;;;;;;41.00;36.25;;;;;8.40;69.70;101920.25;5058005;28;45288;-62
2022/04/27 05:53:51;;;;;;;;;34.75;27.00;;;;;8.44;71.61;101922.00;5057948;28;45290;-62
2022/04/27 05:56:19;;;;;;;;;42.50;35.50;;;;;8.44;69.57;101919.41;5057840;28;45266;-61
2022/04/27 05:58:44;;;;;;;;;46.25;30.00;;;;;8.47;69.78;101928.91;5057755;28;45398;-62
2022/04/27 06:01:11;;;;;;;;;42.75;33.00;;;;;8.48;71.01;101931.50;5057671;28;45706;-62
2022/04/27 06:03:36;;;;;;;;;42.25;32.50;;;;;8.52;70.10;101932.34;5055336;28;45438;-61
2022/04/27 06:06:02;;;;;;;;;35.25;31.00;;;;;8.53;69.62;101941.84;5057471;28;45299;-62
2022/04/27 06:08:28;;;;;;;;;41.25;37.25;;;;;8.60;70.12;101935.78;5056870;28;45617;-61
2022/04/27 06:10:53;;;;;;;;;44.50;30.50;;;;;8.63;70.36;101948.78;5056550;28;45453;-61
2022/04/27 06:13:18;;;;;;;;;43.67;36.00;;;;;8.67;69.26;101945.31;5058289;28;45330;-61
2022/04/27 06:15:44;;;;;;;;;52.75;40.00;;;;;8.64;69.61;101947.91;5056484;28;45690;-62
2022/04/27 06:18:09;;;;;;;;;42.50;33.25;;;;;8.68;70.44;101954.81;5060217;28;46522;-62
2022/04/27 06:20:34;;;;;;;;;36.50;28.75;;;;;8.69;71.20;101951.34;5060567;28;45592;-62
2022/04/27 06:23:00;;;;;;;;;40.25;34.00;;;;;8.73;69.53;101959.97;5061400;28;45460;-62
2022/04/27 06:25:25;;;;;;;;;30.50;30.25;;;;;8.79;69.27;101963.44;5062103;28;45501;-62
2022/04/27 06:27:51;;;;;;;;;42.25;31.75;;;;;8.86;69.52;101966.03;5060666;28;45568;-62
2022/04/27 06:30:17;;;;;;;;;52.25;39.25;;;;;8.92;69.42;101953.94;5058027;28;45249;-62
2022/04/27 06:32:43;;;;;;;;;50.50;40.75;;;;;9.04;69.17;101966.88;5059642;28;45378;-62
2022/04/27 06:35:12;;;;;;;;;46.75;37.25;;;;;9.15;68.85;101959.94;5060297;28;45345;-62
2022/04/27 06:37:38;;;;;;;;;39.75;33.00;;;;;9.28;69.22;101963.38;5073209;27;47118;-62
2022/04/27 06:40:04;;;;;;;;;51.50;41.25;;;;;9.34;68.77;101959.88;5090802;27;45580;-62
2022/04/27 06:42:30;;;;;;;;;39.75;31.00;;;;;9.41;69.03;101969.38;5061807;28;45266;-62
2022/04/27 06:44:55;;;;;;;;;38.75;36.00;;;;;9.45;68.20;101968.53;5061978;28;45481;-62
2022/04/27 06:47:20;;;;;;;;;48.25;37.50;;;;;9.57;68.30;101972.78;5062116;28;46316;-63
2022/04/27 06:49:46;;;;;;;;;39.25;30.00;;;;;9.67;67.98;101977.09;5061813;28;45413;-62
2022/04/27 06:52:11;;;;;;;;;41.75;37.25;;;;;9.72;68.60;101976.19;5060596;28;45358;-63
2022/04/27 06:54:36;;;;;;;;;42.67;36.67;;;;;9.78;68.10;101980.47;5061448;28;45460;-62
2022/04/27 06:57:02;;;;;;;;;43.00;37.67;;;;;9.84;67.57;101974.44;5061066;28;62393;-62
2022/04/27 06:59:28;;;;;;;;;40.50;30.75;;;;;9.97;67.74;101989.91;5061910;28;45418;-62
2022/04/27 07:01:54;;;;;;;;;44.00;34.67;;;;;10.10;67.75;101987.28;5061482;28;61803;-62
2022/04/27 07:04:20;;;;;;;;;44.00;30.75;;;;;10.18;67.30;101991.53;5067501;28;45365;-62
2022/04/27 07:06:45;;;;;;;;;46.25;33.00;;;;;10.27;66.86;101988.06;5062053;28;46429;-62
2022/04/27 07:09:11;;;;;;;;;39.25;33.50;;;;;10.36;66.47;101994.06;5061470;28;45161;-62
2022/04/27 07:11:37;;;;;;;;;44.50;37.00;;;;;10.43;66.38;101988.84;5061833;28;45243;-61
2022/04/27 07:14:03;;;;;;;;;49.50;37.25;;;;;10.48;65.68;101995.72;5061870;28;45340;-62
2022/04/27 07:16:28;;;;;;;;;33.75;29.25;;;;;10.51;66.03;101998.28;5061597;28;46988;-61
2022/04/27 07:18:54;;;;;;;;;43.50;35.75;;;;;10.57;65.30;102000.84;5060654;28;67511;-62
2022/04/27 07:21:22;;;;;;;;;42.00;35.00;;;;;10.67;65.11;102001.66;5061757;28;45442;-63
2022/04/27 07:23:49;;;;;;;;;44.00;35.25;;;;;10.75;65.30;101993.78;5060984;28;45496;-63
2022/04/27 07:26:14;;;;;;;;;44.00;30.75;;;;;10.83;65.09;101999.81;5069463;28;46524;-62
2022/04/27 07:28:41;;;;;;;;;48.00;35.25;;;;;10.91;64.88;102003.19;5060239;28;45236;-62
2022/04/27 07:31:06;;;;;;;;;44.75;33.75;;;;;11.02;64.97;102001.38;5061610;28;45486;-63
2022/04/27 07:33:31;;;;;;;;;38.25;35.25;;;;;11.15;64.54;102005.56;5061267;28;45219;-62
2022/04/27 07:35:57;;;;;;;;;49.25;38.75;;;;;11.22;64.24;101999.44;5061066;28;45447;-63
2022/04/27 07:38:22;;;;;;;;;43.75;36.50;;;;;11.21;64.01;102002.03;5060504;28;45405;-63
2022/04/27 07:40:48;;;;;;;;;48.00;31.00;;;;;11.35;63.78;102007.97;5061366;28;45307;-62
2022/04/27 07:43:14;;;;;;;;;42.75;36.25;;;;;11.45;63.26;102008.75;5060666;28;45243;-62
2022/04/27 07:45:43;;;;;;;;;52.25;42.00;;;;;11.51;63.50;102011.28;5061031;28;45604;-62
2022/04/27 07:48:09;;;;;;;;;40.00;34.50;;;;;11.59;63.26;102005.09;5061325;28;45795;-63
2022/04/27 07:50:35;;;;;;;;;42.75;34.00;;;;;11.69;62.40;102012.81;5061205;28;45333;-62
2022/04/27 07:53:00;;;;;;;;;45.50;37.00;;;;;11.75;62.83;102013.59;5060335;28;45765;-63
2022/04/27 07:55:26;;;;;;;;;41.00;35.75;;;;;11.87;63.12;102017.84;5061247;28;46391;-63
2022/04/27 07:57:51;;;;;;;;;45.75;37.00;;;;;11.93;62.57;102019.50;5060704;28;45228;-63
2022/04/27 08:00:16;;;;;;;;;44.33;36.00;;;;;12.05;62.24;102024.56;5054154;28;61857;-64
2022/04/27 08:02:42;;;;;;;;;45.25;34.50;;;;;12.13;61.88;102020.94;5062978;28;45227;-64
2022/04/27 08:05:09;;;;;;;;;40.50;32.50;;;;;12.23;61.92;102021.72;5059691;28;45546;-64
2022/04/27 08:07:39;;;;;;;;;50.75;38.00;;;;;12.36;62.22;102017.16;5059614;28;46037;-63
2022/04/27 08:10:14;;;;;;;;;46.50;34.25;;;;;12.33;61.55;102019.81;5061634;28;45366;-64
2022/04/27 08:12:41;;;;;;;;;49.75;35.75;;;;;12.31;61.26;102032.00;5059407;28;45483;-63
2022/04/27 08:15:07;;;;;;;;;40.00;34.25;;;;;12.32;61.42;102028.53;5068818;28;46369;-64
2022/04/27 08:17:33;;;;;;;;;51.50;36.25;;;;;12.36;61.23;102023.22;5059092;28;45527;-63
2022/04/27 08:22:43;;;;;;;;;52.75;38.25;;;;;12.51;60.62;102021.31;5058519;28;45455;-60
2022/04/27 08:25:09;;;;;;;;;52.00;35.00;;;;;12.58;60.62;102039.44;5058025;28;74168;-61
2022/04/27 08:27:34;;;;;;;;;52.50;38.00;;;;;12.66;60.70;102028.91;5058843;28;45397;-62
2022/04/27 08:29:59;;;;;;;;;43.75;36.75;;;;;12.68;60.34;102030.59;5058977;28;45518;-61
2022/04/27 08:32:25;;;;;;;;;47.67;37.67;;;;;12.74;60.53;102030.50;5058310;28;66122;-62
2022/04/27 08:34:50;;;;;;;;;47.67;36.67;;;;;12.84;59.98;102031.22;5058537;28;50134;-62
2022/04/27 08:37:15;;;;;;;;;46.33;36.00;;;;;12.92;59.57;102025.88;5058220;28;45449;-62
2022/04/27 08:39:40;;;;;;;;;50.67;36.67;;;;;12.94;59.96;102032.78;5058068;28;69098;-63
2022/04/27 08:42:06;;;;;;;;;47.33;35.67;;;;;13.00;59.92;102027.44;5058499;28;54383;-63
2022/04/27 08:44:32;;;;;;;;;48.75;36.50;;;;;13.02;59.34;102038.75;5058895;28;46505;-64
2022/04/27 08:46:58;;;;;;;;;45.00;36.25;;;;;13.12;59.79;102029.00;5058849;28;45326;-64
2022/04/27 08:49:24;;;;;;;;;46.75;36.75;;;;;13.25;59.74;102027.06;5058577;28;45430;-62
2022/04/27 08:51:49;;;;;;;;;44.00;33.00;;;;;13.28;59.29;102030.47;5058178;28;45397;-62
2022/04/27 08:54:15;;;;;;;;;51.50;37.50;;;;;13.33;59.07;102031.25;5058742;28;46116;-63
2022/04/27 08:56:40;;;;;;;;;54.25;38.25;;;;;13.38;59.37;102024.19;5058045;28;45299;-61
2022/04/27 08:59:08;;;;;;;;;42.25;33.00;;;;;13.44;59.02;102020.63;5059685;28;45187;-61
2022/04/27 09:01:34;;;;;;;;;44.25;35.00;;;;;13.50;58.52;102022.25;5064143;28;45354;-62
2022/04/27 09:04:14;;;;;;;;;41.50;32.25;;;;;13.58;58.80;102026.41;5066413;27;45341;-63
2022/04/27 09:06:41;;;;;;;;;53.50;42.50;;;;;13.67;58.96;102021.03;5060973;28;45405;-63
2022/04/27 09:09:10;;;;;;;;;44.00;36.00;;;;;13.86;58.95;102021.53;5059834;28;45295;-62
2022/04/27 09:11:37;;;;;;;;;43.25;36.25;;;;;14.03;58.81;102018.56;5059644;28;45287;-63
2022/04/27 09:14:06;;;;;;;;;43.75;36.00;;;;;14.16;58.35;102019.13;5057294;28;46168;-63
2022/04/27 09:22:06;;;;;;;;;43.50;34.00;;;;;14.46;57.72;102015.88;5059277;28;45413;-63
2022/04/27 09:24:52;;;;;;;;;44.50;37.00;;;;;14.49;57.15;102021.03;5059596;28;45358;-62
2022/04/27 09:27:27;;;;;;;;;48.25;38.75;;;;;14.55;57.16;102018.28;5060944;28;45365;-62
2022/04/27 09:30:06;;;;;;;;;52.00;38.00;;;;;14.69;57.07;102022.31;5059595;28;45402;-62
2022/04/27 09:32:33;;;;;;;;;47.50;39.25;;;;;14.86;56.98;102022.78;5056807;28;45164;-63
2022/04/27 09:35:03;;;;;;;;;46.25;39.00;;;;;14.98;56.91;102022.47;5057788;28;46904;-63
2022/04/27 09:37:30;;;;;;;;;49.75;38.50;;;;;15.02;56.57;102016.28;5058581;28;45439;-61
2022/04/27 09:39:59;;;;;;;;;45.75;36.00;;;;;15.08;55.67;102020.47;5058055;28;45658;-62
2022/04/27 09:42:36;;;;;;;;;49.00;36.75;;;;;15.06;54.91;102024.91;5058992;28;45213;-63
2022/04/27 09:45:16;;;;;;;;;47.50;35.75;;;;;14.99;55.43;102018.06;5059097;28;46428;-62
2022/04/27 09:47:57;;;;;;;;;48.50;36.50;;;;;15.08;55.55;102017.84;5059017;28;45242;-62
2022/04/27 09:50:23;;;;;;;;;53.25;42.00;;;;;15.19;55.65;102018.44;5087882;27;45636;-63
2022/04/27 09:52:48;;;;;;;;;48.25;37.00;;;;;15.30;55.36;102019.00;5062298;28;45624;-62
2022/04/27 09:55:14;;;;;;;;;38.25;27.00;;;;;15.43;55.64;102017.78;5059021;28;45371;-62
2022/04/27 09:57:41;;;;;;;;;46.25;36.25;;;;;15.59;55.58;102018.25;5053200;28;46929;-62
2022/04/27 10:00:09;;;;;;;;;40.75;34.00;;;;;15.64;53.72;102015.53;5060375;28;45323;-63
2022/04/27 10:02:37;;;;;;;;;42.50;34.25;;;;;15.69;54.31;102011.00;5061084;28;45552;-63
2022/04/27 10:05:02;;;;;;;;;36.00;33.25;;;;;15.75;54.50;102000.31;5060330;27;45411;-63
2022/04/27 10:07:32;;;;;;;;;55.50;40.50;;;;;15.88;54.74;102006.94;5059663;28;45573;-68
2022/04/27 10:09:58;;;;;;;;;46.75;36.00;;;;;15.92;52.97;102000.69;5061349;27;45216;-63
2022/04/27 10:12:23;;;;;;;;;45.25;35.00;;;;;15.96;53.77;101999.69;5056049;28;45419;-63
2022/04/27 10:14:48;;;;;;;;;47.50;37.50;;;;;16.13;54.46;102000.06;5054392;28;45962;-65
2022/04/27 10:17:15;;;;;;;;;47.75;36.25;;;;;16.21;53.04;101994.56;5057478;28;45459;-63
2022/04/27 10:19:48;;;;;;;;;48.25;38.25;;;;;16.27;53.71;101993.53;5057643;28;45429;-64
2022/04/27 10:22:31;;;;;;;;;51.25;39.25;;;;;16.21;53.39;101988.47;5056870;28;45242;-64
2022/04/27 10:25:03;;;;;;;;;40.75;35.00;;;;;16.17;52.71;101987.69;5054594;28;46347;-65
2022/04/27 10:27:40;;;;;;;;;50.25;36.00;;;;;16.26;52.89;101978.72;5055677;28;45523;-65
2022/04/27 10:30:10;;;;;;;;;43.50;36.50;;;;;16.42;53.16;101967.69;5055513;28;45357;-64
2022/04/27 10:32:43;;;;;;;;;45.50;37.25;;;;;16.60;52.67;101974.06;5055630;28;45521;-67
2022/04/27 10:35:11;;;;;;;;;41.00;35.00;;;;;16.70;52.14;101956.31;5058014;28;45554;-67
2022/04/27 10:37:49;;;;;;;;;48.25;35.75;;;;;16.87;51.28;101961.84;5055047;28;47591;-66
2022/04/27 10:40:39;;;;;;;;;45.25;34.25;;;;;16.99;50.51;101955.28;5057374;28;45260;-66
2022/04/27 10:43:07;;;;;;;;;40.50;33.50;;;;;17.06;51.41;101945.44;5054481;28;45339;-65
2022/04/27 10:45:37;;;;;;;;;43.50;37.25;;;;;16.99;50.77;101947.41;5054300;28;46245;-64
2022/04/27 10:48:06;;;;;;;;;45.50;35.75;;;;;16.92;50.04;101951.16;5051417;28;45373;-66
2022/04/27 10:50:33;;;;;;;;;46.25;35.50;;;;;16.90;50.55;101953.00;5056757;28;45414;-65
2022/04/27 10:53:15;;;;;;;;;42.25;34.25;;;;;16.99;49.48;101948.28;5055718;28;45502;-65
2022/04/27 10:55:42;;;;;;;;;43.50;35.75;;;;;17.14;50.00;101953.91;5055251;28;46944;-64
2022/04/27 10:58:14;;;;;;;;;45.50;35.00;;;;;17.24;49.60;101956.16;5054973;28;45415;-64
2022/04/27 11:00:57;;;;;;;;;46.50;36.00;;;;;17.45;50.46;101951.91;5056597;28;45175;-65
2022/04/27 11:03:24;;;;;;;;;41.50;35.25;;;;;17.56;49.40;101948.84;5058796;28;45704;-65
2022/04/27 11:05:51;;;;;;;;;32.25;26.00;;;;;17.69;47.94;101944.91;5062085;28;46810;-64
2022/04/27 11:08:55;;;;;;;;;31.50;23.75;;;;;17.72;48.79;101936.03;5058867;28;45775;-64
2022/04/27 11:11:24;;;;;;;;;46.75;34.25;;;;;17.63;46.62;101937.22;5070314;27;45642;-64
2022/04/27 11:13:50;;;;;;;;;39.50;32.00;;;;;17.58;48.28;101928.63;5065401;28;45538;-65
2022/04/27 11:16:15;;;;;;;;;45.00;34.00;;;;;17.63;48.18;101926.69;5060494;28;47092;-65
2022/04/27 11:18:51;;;;;;;;;41.67;35.00;;;;;17.79;48.18;101932.25;5061053;28;57719;-66
2022/04/27 11:21:21;;;;;;;;;38.50;29.75;;;;;17.92;48.43;101936.13;5061879;28;45303;-66
2022/04/27 11:23:47;;;;;;;;;38.00;31.00;;;;;18.09;47.06;101938.09;5061550;28;45453;-63
2022/04/27 11:26:13;;;;;;;;;32.25;27.50;;;;;18.25;44.78;101936.56;5061372;28;45435;-65
2022/04/27 11:28:42;;;;;;;;;31.50;28.50;;;;;18.50;45.21;101926.75;5059700;28;46402;-60
2022/04/27 11:31:09;;;;;;;;;27.25;25.50;;;;;18.82;45.07;101919.28;5061572;28;45405;-63
2022/04/27 11:33:39;;;;;;;;;34.75;31.00;;;;;18.96;45.20;101924.81;5051920;28;45486;-63